createdAt,value
2023-04-06T00:04:36.019Z,15.02
2023-04-06T00:09:34.836Z,16.27
2023-04-06T00:14:35.034Z,19.23
2023-04-06T00:19:40.188Z,19.38
2023-04-06T00:24:39.098Z,17.42
2023-04-06T00:29:39.837Z,22.00
2023-04-06T00:34:39.018Z,19.13
2023-04-06T00:39:37.837Z,20.10
2023-04-06T00:44:38.050Z,18.77
2023-04-06T00:49:37.226Z,19.27
2023-04-06T00:54:36.067Z,17.27
2023-04-06T00:59:36.046Z,18.00
2023-04-06T01:04:38.500Z,16.30
2023-04-06T01:14:48.323Z,18.63
2023-04-06T01:19:50.443Z,18.50
2023-04-06T01:24:58.056Z,17.70
2023-04-06T01:30:25.932Z,19.60
2023-04-06T01:40:44.857Z,15.60
2023-04-06T01:45:44.254Z,17.05
2023-04-06T01:50:48.590Z,16.83
2023-04-06T01:55:54.280Z,16.70
2023-04-06T02:01:01.530Z,15.15
2023-04-06T02:06:07.445Z,16.25
2023-04-06T02:11:12.409Z,16.52
2023-04-06T02:16:23.489Z,17.77
2023-04-06T02:21:22.414Z,17.27
2023-04-06T02:26:22.738Z,18.52
2023-04-06T02:31:21.813Z,16.98
2023-04-06T02:36:21.480Z,14.43
2023-04-06T02:41:20.538Z,17.05
2023-04-06T02:46:21.213Z,18.48
2023-04-06T02:51:20.141Z,16.77
2023-04-06T02:56:24.901Z,16.43
2023-04-06T03:01:28.953Z,19.02
2023-04-06T03:06:32.647Z,20.48
2023-04-06T03:11:41.092Z,17.65
2023-04-06T03:16:41.419Z,18.90
2023-04-06T03:21:41.199Z,16.52
2023-04-06T03:26:40.672Z,20.60
2023-04-06T03:31:42.222Z,18.88
2023-04-06T03:37:10.266Z,21.52
2023-04-06T03:42:16.440Z,20.05
2023-04-06T03:47:24.080Z,56.55
2023-04-06T03:52:27.286Z,19.50
2023-04-06T03:57:26.184Z,17.27
2023-04-06T04:02:26.538Z,17.15
2023-04-06T04:07:25.527Z,17.95
2023-04-06T04:12:24.429Z,25.83
2023-04-06T04:17:24.225Z,19.48
2023-04-06T04:22:24.625Z,20.67
2023-04-06T04:27:24.009Z,19.85
2023-04-06T04:32:24.524Z,19.35
2023-04-06T04:37:25.098Z,23.63
2023-04-06T04:42:28.173Z,20.45
2023-04-06T04:47:30.290Z,23.65
2023-04-06T04:52:31.214Z,31.52
2023-04-06T04:57:41.801Z,27.23
2023-04-06T05:02:41.664Z,30.45
2023-04-06T05:07:52.353Z,25.85
2023-04-06T05:13:01.519Z,25.55
2023-04-06T05:18:01.254Z,32.65
2023-04-06T05:23:06.346Z,24.83
2023-04-06T05:28:06.854Z,21.55
2023-04-06T05:33:08.822Z,26.08
2023-04-06T05:38:22.645Z,22.88
2023-04-06T05:43:23.292Z,21.30
2023-04-06T05:48:27.329Z,23.73
2023-04-06T05:53:30.082Z,29.13
2023-04-06T05:58:32.249Z,28.80
2023-04-06T06:03:32.443Z,25.55
2023-04-06T06:08:33.076Z,28.63
2023-04-06T06:13:35.096Z,26.00
2023-04-06T06:18:34.470Z,24.60
2023-04-06T06:23:35.225Z,27.48
2023-04-06T06:28:34.583Z,25.38
2023-04-06T06:33:33.794Z,26.10
2023-04-06T06:38:34.152Z,28.33
2023-04-06T06:43:33.273Z,25.93
2023-04-06T06:48:35.484Z,24.45
2023-04-06T06:53:35.848Z,25.52
2023-04-06T06:58:34.818Z,27.45
2023-04-06T07:03:33.721Z,22.23
2023-04-06T07:08:32.863Z,21.23
2023-04-06T07:13:33.655Z,22.20
2023-04-06T07:18:36.113Z,23.60
2023-04-06T07:23:36.610Z,26.67
2023-04-06T07:28:37.105Z,25.90
2023-04-06T07:33:36.651Z,28.35
2023-04-06T07:38:35.678Z,29.33
2023-04-06T07:43:36.094Z,23.33
2023-04-06T07:48:38.578Z,20.10
2023-04-06T07:53:38.358Z,22.77
2023-04-06T07:58:38.999Z,23.67
2023-04-06T08:03:38.443Z,20.52
2023-04-06T08:08:37.579Z,20.45
2023-04-06T08:13:36.536Z,21.25
2023-04-06T08:18:37.107Z,21.83
2023-04-06T08:23:36.076Z,19.70
2023-04-06T08:28:35.514Z,23.90
2023-04-06T08:33:37.720Z,24.10
2023-04-06T08:38:36.745Z,23.63
2023-04-06T08:43:38.855Z,22.45
2023-04-06T08:48:40.516Z,20.42
2023-04-06T08:53:39.792Z,22.08
2023-04-06T08:58:42.144Z,17.45
2023-04-06T09:03:44.533Z,20.00
2023-04-06T09:08:43.886Z,19.10
2023-04-06T09:13:50.817Z,16.65
2023-04-06T09:18:51.851Z,21.52
2023-04-06T09:24:00.909Z,19.00
2023-04-06T09:29:02.515Z,19.70
2023-04-06T09:34:03.403Z,20.38
2023-04-06T09:39:04.672Z,24.92
2023-04-06T09:44:07.854Z,24.38
2023-04-06T09:54:09.570Z,20.70
2023-04-06T09:59:15.666Z,21.17
2023-04-06T10:04:31.297Z,20.75
2023-04-06T10:09:36.581Z,19.58
2023-04-06T10:14:37.966Z,28.25
2023-04-06T10:19:48.695Z,20.58
2023-04-06T10:24:47.680Z,20.48
2023-04-06T10:29:47.909Z,24.02
2023-04-06T10:34:48.511Z,17.98
2023-04-06T10:39:55.924Z,17.35
2023-04-06T10:44:54.990Z,18.33
2023-04-06T10:49:55.179Z,16.10
2023-04-06T10:54:55.945Z,16.67
2023-04-06T10:59:56.383Z,17.13
2023-04-06T11:05:00.652Z,15.18
2023-04-06T11:10:14.018Z,15.80
2023-04-06T11:15:15.838Z,23.48
2023-04-06T11:20:16.244Z,16.02
2023-04-06T11:25:17.482Z,16.13
2023-04-06T11:30:17.080Z,15.45
2023-04-06T11:35:24.318Z,18.67
2023-04-06T11:40:25.745Z,16.30
2023-04-06T11:45:25.129Z,17.55
2023-04-06T11:50:25.701Z,18.25
2023-04-06T11:55:24.627Z,17.85
2023-04-06T12:00:24.190Z,17.92
2023-04-06T12:05:22.963Z,16.10
2023-04-06T12:10:23.419Z,14.48
2023-04-06T12:15:28.139Z,15.75
2023-04-06T12:20:27.733Z,12.35
2023-04-06T12:25:28.334Z,12.73
2023-04-06T12:30:28.127Z,16.65
2023-04-06T12:35:27.208Z,14.77
2023-04-06T12:40:28.066Z,12.38
2023-04-06T12:45:28.369Z,13.23
2023-04-06T12:50:27.774Z,14.68
2023-04-06T12:55:31.632Z,11.50
2023-04-06T13:00:31.841Z,12.77
2023-04-06T13:05:32.391Z,14.43
2023-04-06T13:10:33.453Z,13.48
2023-04-06T13:15:33.254Z,13.40
2023-04-06T13:20:35.400Z,11.18
2023-04-06T13:25:35.785Z,9.47
2023-04-06T13:30:34.773Z,12.48
2023-04-06T13:35:33.673Z,11.18
2023-04-06T13:40:32.694Z,12.90
2023-04-06T13:45:33.092Z,13.85
2023-04-06T13:50:32.137Z,9.48
2023-04-06T13:55:32.298Z,16.20
2023-04-06T14:00:32.661Z,13.60
2023-04-06T14:05:33.802Z,22.70
2023-04-06T14:10:32.884Z,10.55
2023-04-06T14:15:33.176Z,11.48
2023-04-06T14:20:33.748Z,11.20
2023-04-06T14:25:35.884Z,9.32
2023-04-06T14:30:36.252Z,12.17
2023-04-06T14:35:35.001Z,10.57
2023-04-06T14:40:37.303Z,17.40
2023-04-06T14:45:37.904Z,10.80
2023-04-06T14:50:36.683Z,8.88
2023-04-06T14:55:35.563Z,12.57
2023-04-06T15:00:34.373Z,10.85
2023-04-06T15:05:36.180Z,10.27
2023-04-06T15:10:35.082Z,11.88
2023-04-06T15:15:33.958Z,9.30
2023-04-06T15:20:34.332Z,12.63
2023-04-06T15:25:35.837Z,10.13
2023-04-06T15:30:37.590Z,12.52
2023-04-06T15:35:41.138Z,9.32
2023-04-06T15:40:45.849Z,11.02
2023-04-06T15:45:45.170Z,9.38
2023-04-06T15:50:48.556Z,9.68
2023-04-06T15:55:47.490Z,10.52
2023-04-06T16:00:46.341Z,10.52
2023-04-06T16:05:59.189Z,13.68
2023-04-06T16:11:03.752Z,9.68
2023-04-06T16:16:04.061Z,12.02
2023-04-06T16:21:05.617Z,9.27
2023-04-06T16:26:13.092Z,11.50
2023-04-06T16:31:19.375Z,13.80
2023-04-06T16:36:25.121Z,11.18
2023-04-06T16:41:25.067Z,16.70
2023-04-06T16:46:24.407Z,11.50
2023-04-06T16:51:24.889Z,15.73
2023-04-06T16:56:23.627Z,14.45
2023-04-06T17:01:26.121Z,13.32
2023-04-06T17:06:27.170Z,12.03
2023-04-06T17:11:32.620Z,11.90
2023-04-06T17:16:38.649Z,12.13
2023-04-06T17:21:40.725Z,12.30
2023-04-06T17:26:40.541Z,11.07
2023-04-06T17:31:39.426Z,9.93
2023-04-06T17:36:39.484Z,8.95
2023-04-06T17:41:41.333Z,19.95
2023-04-06T17:46:40.215Z,10.88
2023-04-06T17:51:40.868Z,8.82
2023-04-06T17:56:42.430Z,7.47
2023-04-06T18:01:41.338Z,13.68
2023-04-06T18:06:41.789Z,22.00
2023-04-06T18:11:40.536Z,23.80
2023-04-06T18:16:40.977Z,16.17
2023-04-06T18:21:41.442Z,16.85
2023-04-06T18:26:40.334Z,17.50
2023-04-06T18:31:39.193Z,16.15
2023-04-06T18:36:43.606Z,14.32
2023-04-06T18:41:44.122Z,10.98
2023-04-06T18:46:47.129Z,12.52
2023-04-06T18:51:52.459Z,17.40
2023-04-06T18:56:54.464Z,17.85
2023-04-06T19:01:55.952Z,21.15
2023-04-06T19:06:57.972Z,23.17
2023-04-06T19:11:57.652Z,13.52
2023-04-06T19:16:58.306Z,11.55
2023-04-06T19:22:03.361Z,14.57
2023-04-06T19:27:03.854Z,12.75
2023-04-06T19:32:07.744Z,13.38
2023-04-06T19:37:08.804Z,10.85
2023-04-06T19:42:10.434Z,10.93
2023-04-06T19:47:11.944Z,10.93
2023-04-06T19:52:12.491Z,17.13
2023-04-06T19:57:12.119Z,13.05
2023-04-06T20:02:11.003Z,11.93
2023-04-06T20:07:11.223Z,13.60
2023-04-06T20:12:10.151Z,11.23
2023-04-06T20:17:09.095Z,15.70
2023-04-06T20:22:08.411Z,15.27
2023-04-06T20:27:08.469Z,20.98
2023-04-06T20:32:10.668Z,19.23
2023-04-06T20:37:09.829Z,14.77
2023-04-06T20:42:10.387Z,15.90
2023-04-06T20:47:09.170Z,15.10
2023-04-06T20:52:08.361Z,11.45
2023-04-06T20:57:07.109Z,13.35
2023-04-06T21:02:07.319Z,15.85
2023-04-06T21:07:06.725Z,13.60
2023-04-06T21:12:06.883Z,13.68
2023-04-06T21:17:07.786Z,11.02
2023-04-06T21:22:06.661Z,13.25
2023-04-06T21:27:05.402Z,14.95
2023-04-06T21:32:08.681Z,12.73
2023-04-06T21:37:07.534Z,13.90
2023-04-06T21:42:06.840Z,15.90
2023-04-06T21:47:05.755Z,15.80
2023-04-06T21:52:06.099Z,14.98
2023-04-06T21:57:04.977Z,14.55
2023-04-06T22:02:03.904Z,12.90
2023-04-06T22:07:02.734Z,12.85
2023-04-06T22:12:02.864Z,14.57
2023-04-06T22:17:01.809Z,12.15
2023-04-06T22:22:00.615Z,11.70
2023-04-06T22:26:59.537Z,11.45
2023-04-06T22:31:59.752Z,13.02
2023-04-06T22:36:58.546Z,13.13
2023-04-06T22:41:57.450Z,15.40
2023-04-06T22:46:56.458Z,16.70
2023-04-06T22:51:56.666Z,16.10
2023-04-06T22:56:56.065Z,12.23
2023-04-06T23:01:54.984Z,14.13
2023-04-06T23:06:53.767Z,13.80
2023-04-06T23:11:53.885Z,14.88
2023-04-06T23:16:52.759Z,11.57
2023-04-06T23:21:51.607Z,14.52
2023-04-06T23:26:50.385Z,12.77
2023-04-06T23:31:50.507Z,14.88
2023-04-06T23:36:49.283Z,14.25
2023-04-06T23:41:47.976Z,14.85
2023-04-06T23:46:46.947Z,13.82
2023-04-06T23:51:47.086Z,16.77
2023-04-06T23:56:46.334Z,15.80
